CFG9PZ EDDF-HEGN
Flight info
| Callsign | CFG9PZ |
|---|---|
| Flight time | 4h 11m |
| Altitude | 31000 |
| Route | CINDY6F CINDY Z74 LAMPU DCT NOMBO Y161 MAH DCT VAVOR DCT RADIZ DCT GIMIX DCT DARZA DCT SIRMI DCT NERRA DCT PETAK DCT PINDO DCT PAXIS L607 NABSI P557 OBRAN L321 REXUM M872 BOPOB BOPOB1A |
| Aircraft | A321/M-SDE3FGHIRWY/LB1 |
Departure
| Time | 2026-04-14 05:45 |
|---|---|
| Airport | Frankfurt Main Airport (EDDF) |
Arrival
| Time | 2026-04-14 09:57 |
|---|---|
| Airport | Hurghada International Airport (HEGN) |
| Time | Latitude | Longitude | Altitude | Speed | Heading |
|---|---|---|---|---|---|
| 2026-04-14 04:58 | 50.04883 | 8.57441 | 356 ft | 0 kts | 217° |
| 2026-04-14 05:37 | 50.04898 | 8.57458 | 365 ft | 4 kts | 218° |
| 2026-04-14 05:38 | 50.04920 | 8.57483 | 363 ft | 4 kts | 208° |
| 2026-04-14 05:38 | 50.04941 | 8.57494 | 363 ft | 4 kts | 150° |
| 2026-04-14 05:38 | 50.04944 | 8.57493 | 362 ft | 3 kts | 115° |
| 2026-04-14 05:38 | 50.04933 | 8.57531 | 359 ft | 4 kts | 114° |
| 2026-04-14 05:39 | 50.04922 | 8.57570 | 362 ft | 4 kts | 114° |
| 2026-04-14 05:39 | 50.04911 | 8.57608 | 363 ft | 4 kts | 114° |
| 2026-04-14 05:39 | 50.04907 | 8.57624 | 359 ft | 0 kts | 114° |
| 2026-04-14 05:41 | 50.04903 | 8.57639 | 359 ft | 6 kts | 114° |
| 2026-04-14 05:42 | 50.04885 | 8.57705 | 360 ft | 5 kts | 112° |
| 2026-04-14 05:42 | 50.04870 | 8.57759 | 361 ft | 8 kts | 113° |
| 2026-04-14 05:42 | 50.04846 | 8.57842 | 359 ft | 8 kts | 116° |
| 2026-04-14 05:42 | 50.04810 | 8.57898 | 360 ft | 9 kts | 151° |
| 2026-04-14 05:43 | 50.04751 | 8.57936 | 357 ft | 8 kts | 159° |
| 2026-04-14 05:43 | 50.04693 | 8.57969 | 359 ft | 12 kts | 160° |
| 2026-04-14 05:43 | 50.04618 | 8.58011 | 361 ft | 10 kts | 160° |
| 2026-04-14 05:43 | 50.04570 | 8.58039 | 366 ft | 5 kts | 159° |
| 2026-04-14 05:44 | 50.04529 | 8.58063 | 364 ft | 15 kts | 160° |
| 2026-04-14 05:44 | 50.04424 | 8.58118 | 369 ft | 11 kts | 175° |
| 2026-04-14 05:44 | 50.04363 | 8.58064 | 367 ft | 11 kts | 236° |
| 2026-04-14 05:44 | 50.04333 | 8.57952 | 364 ft | 28 kts | 249° |
| 2026-04-14 05:45 | 50.04100 | 8.56962 | 363 ft | 115 kts | 249° |
| 2026-04-14 05:45 | 50.03886 | 8.56069 | 356 ft | 150 kts | 250° |
| 2026-04-14 05:45 | 50.03475 | 8.54345 | 467 ft | 180 kts | 250° |
| 2026-04-14 05:45 | 50.03070 | 8.52587 | 1277 ft | 171 kts | 251° |
| 2026-04-14 05:46 | 50.02537 | 8.50930 | 1779 ft | 179 kts | 229° |
| 2026-04-14 05:46 | 50.01402 | 8.49911 | 1934 ft | 202 kts | 200° |
| 2026-04-14 05:46 | 50.00008 | 8.49197 | 2104 ft | 220 kts | 195° |
| 2026-04-14 05:46 | 49.98477 | 8.49317 | 2427 ft | 227 kts | 155° |
| 2026-04-14 05:47 | 49.97297 | 8.50868 | 2838 ft | 224 kts | 119° |
| 2026-04-14 05:47 | 49.96520 | 8.52969 | 3351 ft | 224 kts | 116° |
| 2026-04-14 05:47 | 49.95740 | 8.55140 | 3619 ft | 239 kts | 116° |
| 2026-04-14 05:47 | 49.94903 | 8.57482 | 3804 ft | 258 kts | 117° |
| 2026-04-14 05:48 | 49.94182 | 8.60074 | 4278 ft | 264 kts | 101° |
| 2026-04-14 05:48 | 49.93978 | 8.62910 | 4894 ft | 266 kts | 91° |
| 2026-04-14 05:48 | 49.93868 | 8.65800 | 5515 ft | 270 kts | 94° |
| 2026-04-14 05:48 | 49.93390 | 8.68639 | 6093 ft | 276 kts | 115° |
| 2026-04-14 05:49 | 49.92277 | 8.71081 | 6651 ft | 281 kts | 136° |
| 2026-04-14 05:49 | 49.90715 | 8.72924 | 7207 ft | 284 kts | 146° |
| 2026-04-14 05:49 | 49.89133 | 8.74771 | 7786 ft | 286 kts | 137° |
| 2026-04-14 05:49 | 49.87847 | 8.77128 | 8359 ft | 289 kts | 122° |
| 2026-04-14 05:50 | 49.86856 | 8.79847 | 8931 ft | 291 kts | 120° |
| 2026-04-14 05:50 | 49.85869 | 8.82604 | 9495 ft | 293 kts | 120° |
| 2026-04-14 05:50 | 49.84870 | 8.85377 | 10052 ft | 296 kts | 121° |
| 2026-04-14 05:50 | 49.83852 | 8.88184 | 10366 ft | 307 kts | 121° |
| 2026-04-14 05:51 | 49.82775 | 8.91138 | 10487 ft | 323 kts | 121° |
| 2026-04-14 05:51 | 49.81642 | 8.94240 | 10617 ft | 338 kts | 121° |
| 2026-04-14 05:51 | 49.80457 | 8.97485 | 10743 ft | 353 kts | 121° |
| 2026-04-14 05:51 | 49.79223 | 9.00861 | 10873 ft | 368 kts | 121° |
| 2026-04-14 05:52 | 49.77941 | 9.04370 | 10994 ft | 381 kts | 121° |
| 2026-04-14 05:52 | 49.76666 | 9.08030 | 11128 ft | 393 kts | 115° |
| 2026-04-14 05:52 | 49.75744 | 9.12038 | 11451 ft | 398 kts | 105° |
| 2026-04-14 05:52 | 49.75010 | 9.16174 | 11867 ft | 400 kts | 111° |
| 2026-04-14 05:53 | 49.73772 | 9.20028 | 12276 ft | 401 kts | 124° |
| 2026-04-14 05:53 | 49.72076 | 9.23440 | 12676 ft | 401 kts | 133° |
| 2026-04-14 05:53 | 49.70202 | 9.26648 | 13049 ft | 403 kts | 133° |
| 2026-04-14 05:53 | 49.68343 | 9.29894 | 13419 ft | 404 kts | 133° |
| 2026-04-14 05:54 | 49.66490 | 9.33167 | 13769 ft | 406 kts | 133° |
| 2026-04-14 05:54 | 49.64632 | 9.36461 | 14090 ft | 408 kts | 132° |
| 2026-04-14 05:54 | 49.62741 | 9.39719 | 14379 ft | 408 kts | 137° |
| 2026-04-14 05:54 | 49.60571 | 9.42534 | 14679 ft | 408 kts | 147° |
| 2026-04-14 05:55 | 49.58155 | 9.44824 | 14977 ft | 408 kts | 151° |
| 2026-04-14 05:55 | 49.55705 | 9.47048 | 15259 ft | 410 kts | 150° |
| 2026-04-14 05:55 | 49.53249 | 9.49286 | 15567 ft | 411 kts | 150° |
| 2026-04-14 05:55 | 49.50787 | 9.51537 | 15874 ft | 413 kts | 150° |
| 2026-04-14 05:56 | 49.48312 | 9.53799 | 16177 ft | 414 kts | 150° |
| 2026-04-14 05:56 | 49.45865 | 9.56036 | 16498 ft | 415 kts | 150° |
| 2026-04-14 05:56 | 49.43375 | 9.58308 | 16824 ft | 417 kts | 150° |
| 2026-04-14 05:56 | 49.40879 | 9.60579 | 17155 ft | 418 kts | 150° |
| 2026-04-14 05:57 | 49.38369 | 9.62855 | 17489 ft | 419 kts | 150° |
| 2026-04-14 05:57 | 49.35854 | 9.65136 | 17835 ft | 421 kts | 149° |
| 2026-04-14 05:57 | 49.33466 | 9.67753 | 18166 ft | 424 kts | 140° |
| 2026-04-14 05:57 | 49.31336 | 9.70886 | 18472 ft | 426 kts | 136° |
| 2026-04-14 05:58 | 49.29237 | 9.74113 | 18759 ft | 428 kts | 136° |
| 2026-04-14 05:58 | 49.27127 | 9.77342 | 19017 ft | 430 kts | 136° |
| 2026-04-14 05:58 | 49.25003 | 9.80581 | 19278 ft | 432 kts | 136° |
| 2026-04-14 05:58 | 49.22860 | 9.83838 | 19497 ft | 436 kts | 136° |
| 2026-04-14 05:59 | 49.20703 | 9.87110 | 19731 ft | 438 kts | 136° |
| 2026-04-14 05:59 | 49.18535 | 9.90398 | 19984 ft | 440 kts | 136° |
| 2026-04-14 05:59 | 49.16359 | 9.93694 | 20238 ft | 442 kts | 136° |
| 2026-04-14 05:59 | 49.14170 | 9.97007 | 20485 ft | 444 kts | 136° |
| 2026-04-14 06:00 | 49.11973 | 10.00328 | 20732 ft | 445 kts | 136° |
| 2026-04-14 06:00 | 49.09768 | 10.03656 | 20969 ft | 447 kts | 136° |
| 2026-04-14 06:00 | 49.07548 | 10.07001 | 21215 ft | 449 kts | 136° |
| 2026-04-14 06:00 | 49.05314 | 10.10350 | 21468 ft | 451 kts | 137° |
| 2026-04-14 06:01 | 49.03041 | 10.13649 | 21727 ft | 452 kts | 137° |
| 2026-04-14 06:01 | 49.00728 | 10.16916 | 21974 ft | 454 kts | 138° |
| 2026-04-14 06:01 | 48.98395 | 10.20166 | 22232 ft | 455 kts | 139° |
| 2026-04-14 06:01 | 48.96055 | 10.23416 | 22516 ft | 456 kts | 139° |
| 2026-04-14 06:02 | 48.93711 | 10.26681 | 22795 ft | 458 kts | 139° |
| 2026-04-14 06:02 | 48.91364 | 10.29971 | 23054 ft | 459 kts | 139° |
| 2026-04-14 06:02 | 48.89017 | 10.33277 | 23310 ft | 461 kts | 139° |
| 2026-04-14 06:02 | 48.86663 | 10.36603 | 23540 ft | 463 kts | 139° |
| 2026-04-14 06:03 | 48.84306 | 10.39933 | 23735 ft | 464 kts | 138° |
| 2026-04-14 06:03 | 48.81953 | 10.43297 | 23918 ft | 465 kts | 137° |
| 2026-04-14 06:03 | 48.79664 | 10.46777 | 24092 ft | 467 kts | 135° |
| 2026-04-14 06:04 | 48.75237 | 10.53982 | 24511 ft | 466 kts | 134° |
| 2026-04-14 06:04 | 48.73053 | 10.57602 | 24782 ft | 465 kts | 134° |
| 2026-04-14 06:04 | 48.70864 | 10.61192 | 25039 ft | 463 kts | 134° |
| 2026-04-14 06:04 | 48.68662 | 10.64748 | 25285 ft | 463 kts | 134° |
| 2026-04-14 06:05 | 48.66448 | 10.68273 | 25508 ft | 462 kts | 135° |
| 2026-04-14 06:05 | 48.64228 | 10.71782 | 25734 ft | 461 kts | 135° |
| 2026-04-14 06:05 | 48.62008 | 10.75281 | 25972 ft | 461 kts | 135° |
| 2026-04-14 06:05 | 48.59791 | 10.78776 | 26203 ft | 460 kts | 135° |
| 2026-04-14 06:06 | 48.57580 | 10.82268 | 26434 ft | 459 kts | 135° |
| 2026-04-14 06:06 | 48.55388 | 10.85760 | 26673 ft | 459 kts | 134° |
| 2026-04-14 06:06 | 48.53202 | 10.89265 | 26916 ft | 458 kts | 134° |
| 2026-04-14 06:06 | 48.51021 | 10.92763 | 27170 ft | 457 kts | 134° |
| 2026-04-14 06:07 | 48.48843 | 10.96247 | 27420 ft | 456 kts | 135° |
| 2026-04-14 06:07 | 48.46662 | 10.99700 | 27650 ft | 455 kts | 135° |
| 2026-04-14 06:07 | 48.44466 | 11.03138 | 27879 ft | 455 kts | 135° |
| 2026-04-14 06:07 | 48.42265 | 11.06553 | 28109 ft | 454 kts | 135° |
| 2026-04-14 06:08 | 48.40063 | 11.09957 | 28346 ft | 453 kts | 135° |
| 2026-04-14 06:08 | 48.37867 | 11.13352 | 28573 ft | 453 kts | 135° |
| 2026-04-14 06:08 | 48.35675 | 11.16746 | 28803 ft | 452 kts | 135° |
| 2026-04-14 06:08 | 48.33483 | 11.20141 | 29032 ft | 451 kts | 135° |
| 2026-04-14 06:09 | 48.31297 | 11.23524 | 29247 ft | 451 kts | 135° |
| 2026-04-14 06:09 | 48.29117 | 11.26895 | 29502 ft | 449 kts | 136° |
| 2026-04-14 06:09 | 48.26993 | 11.30324 | 29733 ft | 449 kts | 130° |
| 2026-04-14 06:09 | 48.25194 | 11.34159 | 29944 ft | 450 kts | 122° |
| 2026-04-14 06:10 | 48.23637 | 11.38226 | 30131 ft | 450 kts | 122° |
| 2026-04-14 06:10 | 48.22073 | 11.42294 | 30303 ft | 449 kts | 122° |
| 2026-04-14 06:10 | 48.20508 | 11.46344 | 30478 ft | 449 kts | 122° |
| 2026-04-14 06:10 | 48.18943 | 11.50386 | 30649 ft | 448 kts | 122° |
| 2026-04-14 06:11 | 48.17379 | 11.54421 | 30821 ft | 448 kts | 122° |
| 2026-04-14 06:11 | 48.15813 | 11.58451 | 31003 ft | 447 kts | 122° |
| 2026-04-14 06:11 | 48.14242 | 11.62480 | 31054 ft | 449 kts | 122° |
| 2026-04-14 06:12 | 48.11084 | 11.70577 | 31061 ft | 451 kts | 122° |
| 2026-04-14 06:12 | 48.07917 | 11.78688 | 31062 ft | 451 kts | 122° |
| 2026-04-14 06:13 | 48.04743 | 11.86782 | 31057 ft | 451 kts | 122° |
| 2026-04-14 06:13 | 48.01561 | 11.94874 | 31063 ft | 452 kts | 123° |
| 2026-04-14 06:14 | 47.98360 | 12.02974 | 31049 ft | 453 kts | 123° |
| 2026-04-14 06:14 | 47.95148 | 12.11071 | 31049 ft | 453 kts | 124° |
| 2026-04-14 06:15 | 47.91214 | 12.18210 | 31045 ft | 447 kts | 141° |
| 2026-04-14 06:15 | 47.86463 | 12.24173 | 31049 ft | 447 kts | 142° |
| 2026-04-14 06:16 | 47.81704 | 12.30128 | 31052 ft | 447 kts | 142° |
| 2026-04-14 06:16 | 47.76946 | 12.36084 | 31053 ft | 447 kts | 142° |
| 2026-04-14 06:17 | 47.72179 | 12.42026 | 31060 ft | 447 kts | 143° |
| 2026-04-14 06:17 | 47.67398 | 12.47960 | 31292 ft | 448 kts | 143° |
| 2026-04-14 06:17 | 47.65008 | 12.50920 | 31445 ft | 448 kts | 143° |
| 2026-04-14 06:18 | 47.62616 | 12.53871 | 31594 ft | 447 kts | 143° |
| 2026-04-14 06:18 | 47.60184 | 12.56730 | 31752 ft | 446 kts | 145° |
| 2026-04-14 06:18 | 47.57707 | 12.59480 | 31924 ft | 444 kts | 146° |
| 2026-04-14 06:18 | 47.55204 | 12.62159 | 32063 ft | 444 kts | 147° |
| 2026-04-14 06:19 | 47.52690 | 12.64807 | 32200 ft | 443 kts | 147° |
| 2026-04-14 06:19 | 47.50186 | 12.67449 | 32405 ft | 441 kts | 147° |
| 2026-04-14 06:19 | 47.47701 | 12.70103 | 32599 ft | 440 kts | 147° |
| 2026-04-14 06:19 | 47.45234 | 12.72771 | 32795 ft | 439 kts | 146° |
| 2026-04-14 06:20 | 47.42778 | 12.75444 | 32975 ft | 438 kts | 146° |
| 2026-04-14 06:20 | 47.37870 | 12.80778 | 33038 ft | 438 kts | 147° |
| 2026-04-14 06:21 | 47.32957 | 12.86080 | 33031 ft | 437 kts | 147° |
| 2026-04-14 06:21 | 47.28040 | 12.91367 | 33030 ft | 437 kts | 147° |
| 2026-04-14 06:22 | 47.23134 | 12.96637 | 33024 ft | 436 kts | 147° |
| 2026-04-14 06:22 | 47.18228 | 13.01897 | 33023 ft | 437 kts | 147° |
| 2026-04-14 06:23 | 47.13315 | 13.07152 | 33017 ft | 436 kts | 147° |
| 2026-04-14 06:23 | 47.08408 | 13.12396 | 33016 ft | 436 kts | 147° |
| 2026-04-14 06:24 | 47.03532 | 13.17596 | 33008 ft | 436 kts | 147° |
| 2026-04-14 06:24 | 46.98619 | 13.22803 | 33019 ft | 435 kts | 147° |
| 2026-04-14 06:25 | 46.93714 | 13.27993 | 33000 ft | 435 kts | 147° |
| 2026-04-14 06:25 | 46.88804 | 13.33187 | 33009 ft | 436 kts | 147° |
| 2026-04-14 06:26 | 46.83890 | 13.38369 | 33007 ft | 436 kts | 147° |
| 2026-04-14 06:26 | 46.78977 | 13.43541 | 33004 ft | 435 kts | 147° |
| 2026-04-14 06:27 | 46.74070 | 13.48702 | 33014 ft | 435 kts | 147° |
| 2026-04-14 06:27 | 46.69153 | 13.53847 | 32993 ft | 435 kts | 147° |
| 2026-04-14 06:28 | 46.64223 | 13.58984 | 32994 ft | 436 kts | 147° |
| 2026-04-14 06:28 | 46.59290 | 13.64127 | 32996 ft | 437 kts | 147° |
| 2026-04-14 06:29 | 46.54348 | 13.69274 | 33008 ft | 437 kts | 147° |
| 2026-04-14 06:29 | 46.49638 | 13.74855 | 33017 ft | 438 kts | 141° |
| 2026-04-14 06:30 | 46.45091 | 13.80726 | 32998 ft | 437 kts | 141° |
| 2026-04-14 06:30 | 46.41303 | 13.85584 | 33000 ft | 438 kts | 141° |
| 2026-04-14 06:31 | 46.36737 | 13.91414 | 32991 ft | 437 kts | 141° |
| 2026-04-14 06:31 | 46.32174 | 13.97244 | 33003 ft | 438 kts | 141° |
| 2026-04-14 06:32 | 46.27614 | 14.03071 | 33014 ft | 437 kts | 141° |
| 2026-04-14 06:32 | 46.23056 | 14.08874 | 33015 ft | 437 kts | 141° |
| 2026-04-14 06:33 | 46.18488 | 14.14668 | 32993 ft | 437 kts | 141° |
| 2026-04-14 06:33 | 46.13920 | 14.20462 | 32993 ft | 438 kts | 141° |
| 2026-04-14 06:34 | 46.07049 | 14.29140 | 33003 ft | 438 kts | 141° |
| 2026-04-14 06:34 | 46.02463 | 14.34921 | 33012 ft | 438 kts | 142° |
| 2026-04-14 06:35 | 45.97886 | 14.40672 | 33005 ft | 437 kts | 141° |
| 2026-04-14 06:35 | 45.93300 | 14.46415 | 32998 ft | 438 kts | 141° |
| 2026-04-14 06:36 | 45.88709 | 14.52168 | 33001 ft | 438 kts | 141° |
| 2026-04-14 06:36 | 45.84107 | 14.57930 | 33002 ft | 439 kts | 141° |
| 2026-04-14 06:37 | 45.79499 | 14.63669 | 33007 ft | 439 kts | 141° |
| 2026-04-14 06:37 | 45.74886 | 14.69405 | 32996 ft | 439 kts | 141° |
| 2026-04-14 06:38 | 45.70269 | 14.75126 | 33001 ft | 439 kts | 141° |
| 2026-04-14 06:38 | 45.65642 | 14.80841 | 33005 ft | 440 kts | 141° |
| 2026-04-14 06:39 | 45.61012 | 14.86557 | 33017 ft | 440 kts | 141° |
| 2026-04-14 06:39 | 45.56381 | 14.92256 | 33002 ft | 439 kts | 141° |
| 2026-04-14 06:40 | 45.51741 | 14.97944 | 32985 ft | 440 kts | 141° |
| 2026-04-14 06:40 | 45.46912 | 15.03279 | 32981 ft | 439 kts | 147° |
| 2026-04-14 06:41 | 45.41890 | 15.08251 | 32984 ft | 440 kts | 147° |
| 2026-04-14 06:41 | 45.36858 | 15.13224 | 32988 ft | 441 kts | 147° |
| 2026-04-14 06:42 | 45.31823 | 15.18197 | 32990 ft | 441 kts | 147° |
| 2026-04-14 06:42 | 45.26776 | 15.23159 | 32994 ft | 441 kts | 147° |
| 2026-04-14 06:43 | 45.21722 | 15.28101 | 32995 ft | 441 kts | 147° |
| 2026-04-14 06:43 | 45.16665 | 15.33045 | 32996 ft | 441 kts | 147° |
| 2026-04-14 06:44 | 45.11612 | 15.37986 | 32992 ft | 441 kts | 147° |
| 2026-04-14 06:44 | 45.06559 | 15.42930 | 32991 ft | 442 kts | 147° |
| 2026-04-14 06:45 | 45.01504 | 15.47863 | 32981 ft | 442 kts | 147° |
| 2026-04-14 06:45 | 44.96429 | 15.52784 | 32976 ft | 443 kts | 147° |
| 2026-04-14 06:46 | 44.88794 | 15.60155 | 32973 ft | 444 kts | 147° |
| 2026-04-14 06:47 | 44.83706 | 15.65078 | 32969 ft | 444 kts | 147° |
| 2026-04-14 06:47 | 44.78608 | 15.69987 | 32975 ft | 444 kts | 147° |
| 2026-04-14 06:48 | 44.73506 | 15.74879 | 32959 ft | 444 kts | 147° |
| 2026-04-14 06:48 | 44.68403 | 15.79771 | 32966 ft | 444 kts | 147° |
| 2026-04-14 06:49 | 44.63295 | 15.84663 | 32960 ft | 444 kts | 147° |
| 2026-04-14 06:49 | 44.58223 | 15.89509 | 32962 ft | 444 kts | 147° |
| 2026-04-14 06:50 | 44.53115 | 15.94385 | 32960 ft | 444 kts | 147° |
| 2026-04-14 06:50 | 44.48002 | 15.99241 | 32942 ft | 444 kts | 148° |
| 2026-04-14 06:51 | 44.42853 | 16.04121 | 32951 ft | 444 kts | 147° |
| 2026-04-14 06:51 | 44.37740 | 16.08953 | 32950 ft | 443 kts | 147° |
| 2026-04-14 06:52 | 44.32631 | 16.13779 | 32948 ft | 443 kts | 147° |
| 2026-04-14 06:52 | 44.27527 | 16.18597 | 32941 ft | 443 kts | 148° |
| 2026-04-14 06:53 | 44.22416 | 16.23393 | 32938 ft | 443 kts | 148° |
| 2026-04-14 06:53 | 44.17304 | 16.28193 | 32929 ft | 443 kts | 147° |
| 2026-04-14 06:54 | 44.12213 | 16.33041 | 32926 ft | 444 kts | 146° |
| 2026-04-14 06:54 | 44.07271 | 16.38111 | 32932 ft | 444 kts | 144° |
| 2026-04-14 06:55 | 44.02324 | 16.43271 | 32926 ft | 445 kts | 144° |
| 2026-04-14 06:55 | 43.97313 | 16.48400 | 32956 ft | 444 kts | 146° |
| 2026-04-14 06:56 | 43.92324 | 16.53435 | 32966 ft | 443 kts | 146° |
| 2026-04-14 06:56 | 43.87374 | 16.58425 | 32960 ft | 443 kts | 145° |
| 2026-04-14 06:57 | 43.82366 | 16.63488 | 32964 ft | 442 kts | 146° |
| 2026-04-14 06:57 | 43.77438 | 16.68464 | 32963 ft | 441 kts | 146° |
| 2026-04-14 06:58 | 43.72476 | 16.73449 | 32955 ft | 441 kts | 146° |
| 2026-04-14 06:58 | 43.67518 | 16.78410 | 32968 ft | 440 kts | 146° |
| 2026-04-14 06:59 | 43.62555 | 16.83376 | 32958 ft | 441 kts | 146° |
| 2026-04-14 06:59 | 43.57587 | 16.88333 | 32964 ft | 441 kts | 145° |
| 2026-04-14 07:00 | 43.52616 | 16.93296 | 32948 ft | 442 kts | 145° |
| 2026-04-14 07:00 | 43.47635 | 16.98258 | 32960 ft | 442 kts | 145° |
| 2026-04-14 07:01 | 43.42648 | 17.03202 | 32971 ft | 441 kts | 145° |
| 2026-04-14 07:01 | 43.37666 | 17.08140 | 32972 ft | 441 kts | 146° |
| 2026-04-14 07:02 | 43.32688 | 17.13067 | 32975 ft | 441 kts | 146° |
| 2026-04-14 07:02 | 43.27705 | 17.17979 | 32971 ft | 441 kts | 146° |
| 2026-04-14 07:03 | 43.22709 | 17.22885 | 32979 ft | 443 kts | 146° |
| 2026-04-14 07:03 | 43.17689 | 17.27805 | 32983 ft | 444 kts | 146° |
| 2026-04-14 07:04 | 43.12677 | 17.32731 | 32970 ft | 444 kts | 146° |
| 2026-04-14 07:04 | 43.07659 | 17.37644 | 32969 ft | 443 kts | 146° |
| 2026-04-14 07:05 | 43.02643 | 17.42542 | 32962 ft | 444 kts | 146° |
| 2026-04-14 07:05 | 42.97612 | 17.47443 | 32966 ft | 444 kts | 147° |
| 2026-04-14 07:06 | 42.92586 | 17.52331 | 32975 ft | 444 kts | 146° |
| 2026-04-14 07:06 | 42.88128 | 17.58169 | 32973 ft | 447 kts | 132° |
| 2026-04-14 07:07 | 42.84115 | 17.64667 | 32973 ft | 448 kts | 132° |
| 2026-04-14 07:07 | 42.80081 | 17.71155 | 32968 ft | 449 kts | 133° |
| 2026-04-14 07:08 | 42.76028 | 17.77639 | 32970 ft | 450 kts | 133° |
| 2026-04-14 07:08 | 42.71974 | 17.84126 | 32978 ft | 450 kts | 133° |
| 2026-04-14 07:09 | 42.67916 | 17.90615 | 32987 ft | 450 kts | 133° |
| 2026-04-14 07:09 | 42.63853 | 17.97089 | 32996 ft | 450 kts | 133° |
| 2026-04-14 07:10 | 42.59786 | 18.03556 | 33002 ft | 451 kts | 132° |
| 2026-04-14 07:10 | 42.55709 | 18.10025 | 32986 ft | 452 kts | 134° |
| 2026-04-14 07:11 | 42.51618 | 18.16498 | 32982 ft | 452 kts | 133° |
| 2026-04-14 07:11 | 42.47520 | 18.22976 | 32979 ft | 453 kts | 133° |
| 2026-04-14 07:12 | 42.43409 | 18.29459 | 32983 ft | 454 kts | 133° |
| 2026-04-14 07:12 | 42.39284 | 18.35938 | 32997 ft | 455 kts | 133° |
| 2026-04-14 07:13 | 42.35818 | 18.41366 | 32996 ft | 455 kts | 133° |
| 2026-04-14 07:13 | 42.31692 | 18.47832 | 32988 ft | 454 kts | 133° |
| 2026-04-14 07:14 | 42.27557 | 18.54300 | 32987 ft | 456 kts | 133° |
| 2026-04-14 07:14 | 42.23400 | 18.60780 | 32994 ft | 457 kts | 133° |
| 2026-04-14 07:15 | 42.19258 | 18.67228 | 33000 ft | 458 kts | 133° |
| 2026-04-14 07:15 | 42.15079 | 18.73720 | 32998 ft | 459 kts | 133° |
| 2026-04-14 07:16 | 42.10892 | 18.80205 | 32991 ft | 459 kts | 134° |
| 2026-04-14 07:16 | 42.06696 | 18.86683 | 33002 ft | 459 kts | 134° |
| 2026-04-14 07:17 | 42.02467 | 18.93195 | 32992 ft | 460 kts | 134° |
| 2026-04-14 07:17 | 41.98286 | 18.99633 | 33000 ft | 460 kts | 134° |
| 2026-04-14 07:18 | 41.94038 | 19.06158 | 33004 ft | 461 kts | 134° |
| 2026-04-14 07:18 | 41.89812 | 19.12635 | 32989 ft | 461 kts | 134° |
| 2026-04-14 07:19 | 41.85583 | 19.19107 | 32999 ft | 461 kts | 134° |
| 2026-04-14 07:19 | 41.81348 | 19.25571 | 33004 ft | 461 kts | 134° |
| 2026-04-14 07:20 | 41.77098 | 19.32009 | 32990 ft | 461 kts | 136° |
| 2026-04-14 07:20 | 41.72613 | 19.38111 | 32995 ft | 459 kts | 140° |
| 2026-04-14 07:21 | 41.67964 | 19.43956 | 32993 ft | 459 kts | 141° |
| 2026-04-14 07:21 | 41.63360 | 19.49782 | 32992 ft | 459 kts | 140° |
| 2026-04-14 07:22 | 41.58768 | 19.55727 | 32989 ft | 460 kts | 140° |
| 2026-04-14 07:22 | 41.54156 | 19.61726 | 32993 ft | 460 kts | 140° |
| 2026-04-14 07:23 | 41.49594 | 19.67632 | 32983 ft | 460 kts | 140° |
| 2026-04-14 07:23 | 41.44988 | 19.73559 | 32989 ft | 460 kts | 141° |
| 2026-04-14 07:24 | 41.40375 | 19.79485 | 32994 ft | 461 kts | 141° |
| 2026-04-14 07:24 | 41.35762 | 19.85400 | 32982 ft | 460 kts | 141° |
| 2026-04-14 07:25 | 41.31149 | 19.91307 | 32987 ft | 460 kts | 141° |
| 2026-04-14 07:25 | 41.26530 | 19.97208 | 33000 ft | 460 kts | 141° |
| 2026-04-14 07:26 | 41.21907 | 20.03103 | 32987 ft | 461 kts | 142° |
| 2026-04-14 07:26 | 41.17274 | 20.08983 | 33016 ft | 461 kts | 142° |
| 2026-04-14 07:27 | 41.12641 | 20.14867 | 32994 ft | 461 kts | 142° |
| 2026-04-14 07:27 | 41.08005 | 20.20740 | 33019 ft | 461 kts | 142° |
| 2026-04-14 07:28 | 41.03368 | 20.26609 | 33017 ft | 461 kts | 142° |
| 2026-04-14 07:28 | 40.98722 | 20.32471 | 33028 ft | 462 kts | 142° |
| 2026-04-14 07:29 | 40.94066 | 20.38332 | 33059 ft | 462 kts | 142° |
| 2026-04-14 07:29 | 40.89412 | 20.44185 | 33053 ft | 462 kts | 142° |
| 2026-04-14 07:30 | 40.84752 | 20.50024 | 33065 ft | 461 kts | 143° |
| 2026-04-14 07:30 | 40.80100 | 20.55841 | 33081 ft | 460 kts | 143° |
| 2026-04-14 07:31 | 40.75446 | 20.61646 | 33101 ft | 460 kts | 143° |
| 2026-04-14 07:31 | 40.70805 | 20.67440 | 33077 ft | 459 kts | 143° |
| 2026-04-14 07:32 | 40.66163 | 20.73220 | 33079 ft | 459 kts | 143° |
| 2026-04-14 07:32 | 40.61513 | 20.78985 | 33095 ft | 459 kts | 143° |
| 2026-04-14 07:33 | 40.56857 | 20.84740 | 33075 ft | 459 kts | 144° |
| 2026-04-14 07:33 | 40.52207 | 20.90490 | 33104 ft | 459 kts | 144° |
| 2026-04-14 07:34 | 40.42733 | 21.01648 | 33106 ft | 455 kts | 148° |
| 2026-04-14 07:35 | 40.37827 | 21.06879 | 33127 ft | 455 kts | 149° |
| 2026-04-14 07:35 | 40.32929 | 21.12122 | 33138 ft | 455 kts | 148° |
| 2026-04-14 07:36 | 40.28059 | 21.17432 | 33139 ft | 456 kts | 148° |
| 2026-04-14 07:36 | 40.23188 | 21.22762 | 33144 ft | 457 kts | 148° |
| 2026-04-14 07:37 | 40.18304 | 21.28076 | 33128 ft | 457 kts | 149° |
| 2026-04-14 07:37 | 40.13402 | 21.33381 | 33140 ft | 458 kts | 149° |
| 2026-04-14 07:38 | 40.08487 | 21.38691 | 33148 ft | 459 kts | 149° |
| 2026-04-14 07:38 | 40.03569 | 21.43996 | 33159 ft | 459 kts | 149° |
| 2026-04-14 07:39 | 39.98644 | 21.49302 | 33162 ft | 459 kts | 149° |
| 2026-04-14 07:39 | 39.93720 | 21.54605 | 33171 ft | 459 kts | 149° |
| 2026-04-14 07:40 | 39.88797 | 21.59897 | 33160 ft | 459 kts | 149° |
| 2026-04-14 07:40 | 39.83863 | 21.65167 | 33167 ft | 458 kts | 149° |
| 2026-04-14 07:41 | 39.78930 | 21.70430 | 33170 ft | 459 kts | 149° |
| 2026-04-14 07:41 | 39.73998 | 21.75696 | 33174 ft | 459 kts | 149° |
| 2026-04-14 07:42 | 39.69063 | 21.80953 | 33147 ft | 459 kts | 150° |
| 2026-04-14 07:42 | 39.64116 | 21.86212 | 33163 ft | 460 kts | 150° |
| 2026-04-14 07:43 | 39.59166 | 21.91464 | 33176 ft | 460 kts | 150° |
| 2026-04-14 07:43 | 39.54213 | 21.96712 | 33180 ft | 460 kts | 150° |
| 2026-04-14 07:44 | 39.49264 | 22.01950 | 33190 ft | 459 kts | 150° |
| 2026-04-14 07:44 | 39.44309 | 22.07172 | 33180 ft | 459 kts | 150° |
| 2026-04-14 07:45 | 39.39355 | 22.12387 | 33151 ft | 459 kts | 150° |
| 2026-04-14 07:45 | 39.34391 | 22.17604 | 33185 ft | 461 kts | 151° |
| 2026-04-14 07:46 | 39.29413 | 22.22821 | 33188 ft | 461 kts | 151° |
| 2026-04-14 07:46 | 39.24435 | 22.28026 | 33188 ft | 460 kts | 151° |
| 2026-04-14 07:47 | 39.19457 | 22.33228 | 33182 ft | 461 kts | 151° |
| 2026-04-14 07:47 | 39.14480 | 22.38425 | 33179 ft | 460 kts | 151° |
| 2026-04-14 07:48 | 39.09507 | 22.43605 | 33157 ft | 460 kts | 152° |
| 2026-04-14 07:48 | 39.04533 | 22.48769 | 33141 ft | 459 kts | 152° |
| 2026-04-14 07:49 | 38.99558 | 22.53928 | 33153 ft | 459 kts | 152° |
| 2026-04-14 07:49 | 38.94585 | 22.59081 | 33163 ft | 459 kts | 152° |
| 2026-04-14 07:50 | 38.89610 | 22.64227 | 33163 ft | 459 kts | 152° |
| 2026-04-14 07:50 | 38.84636 | 22.69362 | 33145 ft | 459 kts | 152° |
| 2026-04-14 07:51 | 38.79695 | 22.74442 | 33163 ft | 458 kts | 152° |
| 2026-04-14 07:51 | 38.74724 | 22.79537 | 33165 ft | 458 kts | 152° |
| 2026-04-14 07:52 | 38.69712 | 22.84677 | 33156 ft | 459 kts | 151° |
| 2026-04-14 07:52 | 38.64753 | 22.89757 | 33155 ft | 460 kts | 151° |
| 2026-04-14 07:53 | 38.59715 | 22.94903 | 33157 ft | 461 kts | 151° |
| 2026-04-14 07:53 | 38.54742 | 22.99990 | 33135 ft | 461 kts | 151° |
| 2026-04-14 07:54 | 38.50546 | 23.04276 | 33145 ft | 461 kts | 151° |
| 2026-04-14 07:54 | 38.45535 | 23.09373 | 33154 ft | 461 kts | 151° |
| 2026-04-14 07:55 | 38.40512 | 23.14448 | 33153 ft | 461 kts | 151° |
| 2026-04-14 07:55 | 38.35481 | 23.19527 | 33163 ft | 462 kts | 151° |
| 2026-04-14 07:56 | 38.30446 | 23.24623 | 33170 ft | 462 kts | 151° |
| 2026-04-14 07:56 | 38.25410 | 23.29702 | 33172 ft | 462 kts | 151° |
| 2026-04-14 07:57 | 38.20373 | 23.34775 | 33169 ft | 462 kts | 151° |
| 2026-04-14 07:57 | 38.15329 | 23.39842 | 33171 ft | 462 kts | 152° |
| 2026-04-14 07:58 | 38.10288 | 23.44904 | 33149 ft | 462 kts | 151° |
| 2026-04-14 07:58 | 38.05242 | 23.49966 | 33150 ft | 462 kts | 151° |
| 2026-04-14 07:59 | 38.00187 | 23.55017 | 33140 ft | 462 kts | 151° |
| 2026-04-14 07:59 | 37.95134 | 23.60054 | 33166 ft | 462 kts | 151° |
| 2026-04-14 08:00 | 37.90081 | 23.65094 | 33169 ft | 462 kts | 151° |
| 2026-04-14 08:00 | 37.85028 | 23.70123 | 33172 ft | 462 kts | 151° |
| 2026-04-14 08:01 | 37.79975 | 23.75144 | 33153 ft | 462 kts | 151° |
| 2026-04-14 08:01 | 37.74912 | 23.80160 | 33149 ft | 462 kts | 150° |
| 2026-04-14 08:02 | 37.69850 | 23.85168 | 33164 ft | 462 kts | 150° |
| 2026-04-14 08:02 | 37.64790 | 23.90175 | 33170 ft | 462 kts | 150° |
| 2026-04-14 08:03 | 37.59726 | 23.95161 | 33171 ft | 462 kts | 150° |
| 2026-04-14 08:03 | 37.54654 | 24.00145 | 33175 ft | 462 kts | 150° |
| 2026-04-14 08:04 | 37.49581 | 24.05117 | 33179 ft | 462 kts | 150° |
| 2026-04-14 08:04 | 37.44502 | 24.10097 | 33151 ft | 463 kts | 150° |
| 2026-04-14 08:05 | 37.39408 | 24.15084 | 33155 ft | 465 kts | 150° |
| 2026-04-14 08:05 | 37.34304 | 24.20082 | 33159 ft | 466 kts | 150° |
| 2026-04-14 08:06 | 37.29182 | 24.25083 | 33165 ft | 466 kts | 150° |
| 2026-04-14 08:06 | 37.24057 | 24.30071 | 33168 ft | 466 kts | 150° |
| 2026-04-14 08:07 | 37.18956 | 24.35020 | 33157 ft | 467 kts | 150° |
| 2026-04-14 08:07 | 37.13812 | 24.40006 | 33143 ft | 468 kts | 149° |
| 2026-04-14 08:08 | 37.08653 | 24.45013 | 33149 ft | 470 kts | 149° |
| 2026-04-14 08:08 | 37.03479 | 24.50023 | 33151 ft | 471 kts | 149° |
| 2026-04-14 08:09 | 36.98290 | 24.55029 | 33161 ft | 471 kts | 149° |
| 2026-04-14 08:09 | 36.93093 | 24.60028 | 33169 ft | 472 kts | 149° |
| 2026-04-14 08:10 | 36.87890 | 24.65039 | 33154 ft | 473 kts | 149° |
| 2026-04-14 08:10 | 36.82675 | 24.70054 | 33161 ft | 473 kts | 149° |
| 2026-04-14 08:11 | 36.77447 | 24.75051 | 33164 ft | 474 kts | 149° |
| 2026-04-14 08:11 | 36.72208 | 24.80041 | 33178 ft | 474 kts | 149° |
| 2026-04-14 08:12 | 36.66976 | 24.85045 | 33178 ft | 474 kts | 149° |
| 2026-04-14 08:12 | 36.61742 | 24.90042 | 33175 ft | 474 kts | 149° |
| 2026-04-14 08:13 | 36.56503 | 24.95026 | 33159 ft | 474 kts | 149° |
| 2026-04-14 08:13 | 36.51261 | 25.00004 | 33169 ft | 474 kts | 149° |
| 2026-04-14 08:14 | 36.46017 | 25.04979 | 33144 ft | 474 kts | 149° |
| 2026-04-14 08:14 | 36.40763 | 25.09953 | 33149 ft | 475 kts | 149° |
| 2026-04-14 08:15 | 36.35508 | 25.14926 | 33138 ft | 475 kts | 149° |
| 2026-04-14 08:15 | 36.30247 | 25.19889 | 33147 ft | 475 kts | 149° |
| 2026-04-14 08:16 | 36.24984 | 25.24836 | 33151 ft | 475 kts | 149° |
| 2026-04-14 08:16 | 36.19718 | 25.29783 | 33164 ft | 475 kts | 149° |
| 2026-04-14 08:17 | 36.14454 | 25.34731 | 33150 ft | 475 kts | 149° |
| 2026-04-14 08:17 | 36.09180 | 25.39670 | 33162 ft | 475 kts | 149° |
| 2026-04-14 08:18 | 36.03904 | 25.44599 | 33153 ft | 475 kts | 149° |
| 2026-04-14 08:18 | 35.98626 | 25.49529 | 33155 ft | 476 kts | 149° |
| 2026-04-14 08:19 | 35.93341 | 25.54457 | 33165 ft | 476 kts | 149° |
| 2026-04-14 08:19 | 35.88050 | 25.59381 | 33156 ft | 476 kts | 149° |
| 2026-04-14 08:20 | 35.82759 | 25.64287 | 33150 ft | 476 kts | 149° |
| 2026-04-14 08:20 | 35.77461 | 25.69201 | 33130 ft | 477 kts | 149° |
| 2026-04-14 08:21 | 35.72159 | 25.74113 | 33142 ft | 477 kts | 149° |
| 2026-04-14 08:21 | 35.66850 | 25.79016 | 33158 ft | 478 kts | 149° |
| 2026-04-14 08:22 | 35.61531 | 25.83918 | 33161 ft | 478 kts | 149° |
| 2026-04-14 08:22 | 35.56213 | 25.88813 | 33167 ft | 478 kts | 149° |
| 2026-04-14 08:23 | 35.50893 | 25.93707 | 33180 ft | 478 kts | 149° |
| 2026-04-14 08:23 | 35.45570 | 25.98593 | 33162 ft | 478 kts | 149° |
| 2026-04-14 08:24 | 35.40231 | 26.03476 | 33162 ft | 479 kts | 149° |
| 2026-04-14 08:24 | 35.34888 | 26.08364 | 33164 ft | 480 kts | 149° |
| 2026-04-14 08:25 | 35.29537 | 26.13251 | 33159 ft | 480 kts | 149° |
| 2026-04-14 08:25 | 35.24188 | 26.18131 | 33172 ft | 480 kts | 149° |
| 2026-04-14 08:26 | 35.18831 | 26.23012 | 33155 ft | 480 kts | 149° |
| 2026-04-14 08:26 | 35.13469 | 26.27881 | 33161 ft | 481 kts | 149° |
| 2026-04-14 08:27 | 35.08091 | 26.32757 | 33161 ft | 482 kts | 149° |
| 2026-04-14 08:27 | 35.02697 | 26.37642 | 33166 ft | 483 kts | 149° |
| 2026-04-14 08:28 | 34.97292 | 26.42528 | 33181 ft | 484 kts | 149° |
| 2026-04-14 08:28 | 34.91877 | 26.47413 | 33157 ft | 484 kts | 149° |
| 2026-04-14 08:29 | 34.86458 | 26.52291 | 33198 ft | 485 kts | 149° |
| 2026-04-14 08:29 | 34.83744 | 26.54726 | 33354 ft | 485 kts | 149° |
| 2026-04-14 08:29 | 34.81028 | 26.57167 | 33508 ft | 485 kts | 149° |
| 2026-04-14 08:29 | 34.78311 | 26.59608 | 33642 ft | 486 kts | 149° |
| 2026-04-14 08:30 | 34.75586 | 26.62052 | 33778 ft | 487 kts | 149° |
| 2026-04-14 08:30 | 34.72862 | 26.64495 | 33922 ft | 487 kts | 149° |
| 2026-04-14 08:30 | 34.70134 | 26.66942 | 34059 ft | 488 kts | 149° |
| 2026-04-14 08:30 | 34.67403 | 26.69392 | 34204 ft | 488 kts | 150° |
| 2026-04-14 08:31 | 34.64670 | 26.71839 | 34320 ft | 488 kts | 150° |
| 2026-04-14 08:31 | 34.59195 | 26.76728 | 34548 ft | 489 kts | 150° |
| 2026-04-14 08:31 | 34.56452 | 26.79174 | 34661 ft | 489 kts | 150° |
| 2026-04-14 08:32 | 34.53708 | 26.81618 | 34783 ft | 490 kts | 150° |
| 2026-04-14 08:32 | 34.50960 | 26.84062 | 34901 ft | 490 kts | 150° |
| 2026-04-14 08:32 | 34.48214 | 26.86503 | 35024 ft | 490 kts | 150° |
| 2026-04-14 08:32 | 34.45468 | 26.88946 | 35185 ft | 489 kts | 150° |
| 2026-04-14 08:33 | 34.39953 | 26.93851 | 35214 ft | 494 kts | 150° |
| 2026-04-14 08:33 | 34.34407 | 26.98768 | 35212 ft | 494 kts | 150° |
| 2026-04-14 08:34 | 34.28840 | 27.03689 | 35217 ft | 497 kts | 150° |
| 2026-04-14 08:34 | 34.23256 | 27.08628 | 35212 ft | 497 kts | 150° |
| 2026-04-14 08:35 | 34.17710 | 27.13532 | 35216 ft | 498 kts | 150° |
| 2026-04-14 08:35 | 34.13025 | 27.17658 | 35211 ft | 498 kts | 150° |
| 2026-04-14 08:36 | 34.07426 | 27.22576 | 35210 ft | 498 kts | 150° |
| 2026-04-14 08:36 | 34.01823 | 27.27493 | 35193 ft | 498 kts | 150° |
| 2026-04-14 08:37 | 33.95303 | 27.33225 | 35193 ft | 500 kts | 150° |
| 2026-04-14 08:37 | 33.90541 | 27.37238 | 35196 ft | 498 kts | 152° |
| 2026-04-14 08:38 | 33.84753 | 27.41830 | 35204 ft | 498 kts | 153° |
| 2026-04-14 08:38 | 33.78948 | 27.46392 | 35207 ft | 499 kts | 153° |
| 2026-04-14 08:39 | 33.73164 | 27.51016 | 35188 ft | 500 kts | 152° |
| 2026-04-14 08:39 | 33.67372 | 27.55680 | 35186 ft | 502 kts | 152° |
| 2026-04-14 08:40 | 33.61565 | 27.60352 | 35197 ft | 503 kts | 152° |
| 2026-04-14 08:40 | 33.55737 | 27.65011 | 35204 ft | 504 kts | 153° |
| 2026-04-14 08:41 | 33.49899 | 27.69657 | 35215 ft | 504 kts | 153° |
| 2026-04-14 08:41 | 33.44054 | 27.74312 | 35197 ft | 505 kts | 153° |
| 2026-04-14 08:42 | 33.38203 | 27.78969 | 35205 ft | 505 kts | 153° |
| 2026-04-14 08:42 | 33.32346 | 27.83619 | 35214 ft | 506 kts | 153° |
| 2026-04-14 08:43 | 33.26481 | 27.88265 | 35223 ft | 506 kts | 153° |
| 2026-04-14 08:43 | 33.20618 | 27.92907 | 35222 ft | 506 kts | 153° |
| 2026-04-14 08:44 | 33.14752 | 27.97547 | 35208 ft | 506 kts | 153° |
| 2026-04-14 08:44 | 33.08883 | 28.02180 | 35210 ft | 506 kts | 153° |
| 2026-04-14 08:45 | 33.03004 | 28.06795 | 35211 ft | 506 kts | 153° |
| 2026-04-14 08:45 | 32.97119 | 28.11406 | 35210 ft | 506 kts | 153° |
| 2026-04-14 08:46 | 32.91234 | 28.16028 | 35212 ft | 507 kts | 153° |
| 2026-04-14 08:46 | 32.85350 | 28.20656 | 35197 ft | 507 kts | 153° |
| 2026-04-14 08:47 | 32.79459 | 28.25271 | 35201 ft | 507 kts | 153° |
| 2026-04-14 08:47 | 32.73597 | 28.29838 | 35208 ft | 507 kts | 153° |
| 2026-04-14 08:48 | 32.67653 | 28.34462 | 35210 ft | 507 kts | 153° |
| 2026-04-14 08:48 | 32.61749 | 28.39065 | 35205 ft | 508 kts | 153° |
| 2026-04-14 08:49 | 32.55876 | 28.43630 | 35198 ft | 509 kts | 153° |
| 2026-04-14 08:49 | 32.49949 | 28.48228 | 35195 ft | 509 kts | 153° |
| 2026-04-14 08:50 | 32.44018 | 28.52820 | 35195 ft | 510 kts | 153° |
| 2026-04-14 08:50 | 32.38039 | 28.57443 | 35197 ft | 510 kts | 153° |
| 2026-04-14 08:51 | 32.32137 | 28.62001 | 35199 ft | 510 kts | 153° |
| 2026-04-14 08:51 | 32.26189 | 28.66586 | 35185 ft | 510 kts | 153° |
| 2026-04-14 08:52 | 32.20234 | 28.71173 | 35181 ft | 512 kts | 152° |
| 2026-04-14 08:52 | 32.14268 | 28.75769 | 35180 ft | 512 kts | 152° |
| 2026-04-14 08:53 | 32.08288 | 28.80357 | 35182 ft | 513 kts | 152° |
| 2026-04-14 08:53 | 32.02294 | 28.84941 | 35183 ft | 514 kts | 152° |
| 2026-04-14 08:54 | 31.96290 | 28.89522 | 35172 ft | 514 kts | 152° |
| 2026-04-14 08:54 | 31.90283 | 28.94105 | 35175 ft | 515 kts | 152° |
| 2026-04-14 08:55 | 31.84271 | 28.98696 | 35177 ft | 516 kts | 152° |
| 2026-04-14 08:55 | 31.78230 | 29.03262 | 35176 ft | 514 kts | 156° |
| 2026-04-14 08:56 | 31.71735 | 29.06398 | 35177 ft | 498 kts | 174° |
| 2026-04-14 08:56 | 31.64999 | 29.07306 | 35165 ft | 481 kts | 188° |
| 2026-04-14 08:57 | 31.58296 | 29.07379 | 35165 ft | 483 kts | 188° |
| 2026-04-14 08:57 | 31.51573 | 29.07493 | 35172 ft | 483 kts | 188° |
| 2026-04-14 08:58 | 31.44848 | 29.07608 | 35158 ft | 483 kts | 188° |
| 2026-04-14 08:58 | 31.38117 | 29.07705 | 35166 ft | 484 kts | 188° |
| 2026-04-14 08:59 | 31.31387 | 29.07801 | 35172 ft | 484 kts | 188° |
| 2026-04-14 08:59 | 31.24649 | 29.07892 | 35178 ft | 484 kts | 188° |
| 2026-04-14 09:00 | 31.17910 | 29.07971 | 35163 ft | 484 kts | 188° |
| 2026-04-14 09:00 | 31.11168 | 29.08061 | 35176 ft | 485 kts | 188° |
| 2026-04-14 09:01 | 31.04419 | 29.08158 | 35190 ft | 485 kts | 188° |
| 2026-04-14 09:01 | 30.97669 | 29.08262 | 35192 ft | 485 kts | 188° |
| 2026-04-14 09:02 | 30.90919 | 29.08369 | 35181 ft | 485 kts | 187° |
| 2026-04-14 09:02 | 30.84172 | 29.08463 | 35188 ft | 485 kts | 188° |
| 2026-04-14 09:03 | 30.77419 | 29.08550 | 35192 ft | 485 kts | 188° |
| 2026-04-14 09:03 | 30.70670 | 29.08640 | 35169 ft | 485 kts | 187° |
| 2026-04-14 09:04 | 30.63921 | 29.08736 | 35177 ft | 485 kts | 187° |
| 2026-04-14 09:04 | 30.57169 | 29.08870 | 35178 ft | 489 kts | 183° |
| 2026-04-14 09:05 | 30.53773 | 29.09476 | 35178 ft | 500 kts | 172° |
| 2026-04-14 09:05 | 30.50455 | 29.10790 | 35174 ft | 509 kts | 161° |
| 2026-04-14 09:05 | 30.47338 | 29.12798 | 35169 ft | 517 kts | 149° |
| 2026-04-14 09:05 | 30.44538 | 29.15451 | 35151 ft | 523 kts | 137° |
| 2026-04-14 09:06 | 30.39479 | 29.21535 | 35147 ft | 524 kts | 136° |
| 2026-04-14 09:06 | 30.34405 | 29.27613 | 35137 ft | 525 kts | 136° |
| 2026-04-14 09:07 | 30.29316 | 29.33677 | 35141 ft | 526 kts | 136° |
| 2026-04-14 09:07 | 30.24230 | 29.39757 | 35144 ft | 526 kts | 136° |
| 2026-04-14 09:08 | 30.19139 | 29.45832 | 35151 ft | 526 kts | 136° |
| 2026-04-14 09:08 | 30.14042 | 29.51904 | 35154 ft | 526 kts | 136° |
| 2026-04-14 09:09 | 30.08937 | 29.57968 | 35132 ft | 526 kts | 136° |
| 2026-04-14 09:09 | 30.03832 | 29.64028 | 35147 ft | 526 kts | 136° |
| 2026-04-14 09:10 | 29.98723 | 29.70077 | 35152 ft | 526 kts | 136° |
| 2026-04-14 09:10 | 29.93652 | 29.76078 | 35154 ft | 526 kts | 136° |
| 2026-04-14 09:11 | 29.88548 | 29.82119 | 35152 ft | 526 kts | 136° |
| 2026-04-14 09:11 | 29.83437 | 29.88143 | 35158 ft | 526 kts | 136° |
| 2026-04-14 09:12 | 29.78323 | 29.94160 | 35161 ft | 526 kts | 136° |
| 2026-04-14 09:12 | 29.73212 | 30.00178 | 35166 ft | 526 kts | 136° |
| 2026-04-14 09:13 | 29.68099 | 30.06190 | 35160 ft | 525 kts | 136° |
| 2026-04-14 09:13 | 29.62988 | 30.12190 | 35159 ft | 525 kts | 136° |
| 2026-04-14 09:14 | 29.57871 | 30.18176 | 35160 ft | 525 kts | 136° |
| 2026-04-14 09:14 | 29.52746 | 30.24153 | 35158 ft | 525 kts | 136° |
| 2026-04-14 09:15 | 29.47623 | 30.30127 | 35155 ft | 525 kts | 136° |
| 2026-04-14 09:15 | 29.42502 | 30.36098 | 35158 ft | 525 kts | 136° |
| 2026-04-14 09:16 | 29.37382 | 30.42072 | 35144 ft | 525 kts | 135° |
| 2026-04-14 09:16 | 29.32325 | 30.48108 | 35147 ft | 525 kts | 135° |
| 2026-04-14 09:17 | 29.27294 | 30.54170 | 35143 ft | 525 kts | 135° |
| 2026-04-14 09:17 | 29.22246 | 30.60203 | 35141 ft | 525 kts | 135° |
| 2026-04-14 09:18 | 29.17180 | 30.66213 | 35142 ft | 525 kts | 135° |
| 2026-04-14 09:18 | 29.12107 | 30.72222 | 35144 ft | 525 kts | 135° |
| 2026-04-14 09:19 | 29.07029 | 30.78233 | 35154 ft | 526 kts | 135° |
| 2026-04-14 09:19 | 29.01949 | 30.84240 | 35139 ft | 526 kts | 135° |
| 2026-04-14 09:20 | 28.96867 | 30.90253 | 35151 ft | 526 kts | 135° |
| 2026-04-14 09:20 | 28.92641 | 30.95244 | 35148 ft | 526 kts | 135° |
| 2026-04-14 09:21 | 28.87556 | 31.01238 | 35140 ft | 525 kts | 135° |
| 2026-04-14 09:21 | 28.82472 | 31.07223 | 35141 ft | 525 kts | 135° |
| 2026-04-14 09:22 | 28.77388 | 31.13208 | 35138 ft | 525 kts | 135° |
| 2026-04-14 09:22 | 28.72295 | 31.19179 | 35130 ft | 525 kts | 135° |
| 2026-04-14 09:23 | 28.67237 | 31.25177 | 35129 ft | 525 kts | 133° |
| 2026-04-14 09:23 | 28.62353 | 31.31357 | 35130 ft | 525 kts | 132° |
| 2026-04-14 09:24 | 28.57519 | 31.37588 | 35129 ft | 525 kts | 132° |
| 2026-04-14 09:24 | 28.52643 | 31.43770 | 35134 ft | 525 kts | 133° |
| 2026-04-14 09:25 | 28.47724 | 31.49915 | 35133 ft | 525 kts | 133° |
| 2026-04-14 09:25 | 28.42805 | 31.56048 | 35142 ft | 525 kts | 133° |
| 2026-04-14 09:26 | 28.37895 | 31.62182 | 35137 ft | 524 kts | 133° |
| 2026-04-14 09:26 | 28.33000 | 31.68312 | 35131 ft | 524 kts | 133° |
| 2026-04-14 09:27 | 28.28098 | 31.74432 | 35106 ft | 524 kts | 133° |
| 2026-04-14 09:27 | 28.23179 | 31.80547 | 35110 ft | 525 kts | 133° |
| 2026-04-14 09:28 | 28.18260 | 31.86668 | 35114 ft | 525 kts | 133° |
| 2026-04-14 09:28 | 28.13338 | 31.92779 | 35116 ft | 525 kts | 133° |
| 2026-04-14 09:29 | 28.08414 | 31.98885 | 35113 ft | 525 kts | 133° |
| 2026-04-14 09:29 | 28.03619 | 32.05119 | 35115 ft | 525 kts | 124° |
| 2026-04-14 09:30 | 27.99944 | 32.12218 | 35113 ft | 523 kts | 117° |
| 2026-04-14 09:30 | 27.96478 | 32.19449 | 34641 ft | 523 kts | 117° |
| 2026-04-14 09:31 | 27.94739 | 32.23049 | 34094 ft | 521 kts | 117° |
| 2026-04-14 09:31 | 27.92999 | 32.26640 | 33444 ft | 519 kts | 117° |
| 2026-04-14 09:31 | 27.91264 | 32.30215 | 32801 ft | 518 kts | 117° |
| 2026-04-14 09:31 | 27.89538 | 32.33778 | 32170 ft | 517 kts | 117° |
| 2026-04-14 09:32 | 27.87813 | 32.37342 | 31573 ft | 516 kts | 118° |
| 2026-04-14 09:32 | 27.86096 | 32.40890 | 30996 ft | 514 kts | 118° |
| 2026-04-14 09:32 | 27.82672 | 32.47951 | 29866 ft | 511 kts | 118° |
| 2026-04-14 09:33 | 27.80966 | 32.51470 | 29234 ft | 510 kts | 118° |
| 2026-04-14 09:33 | 27.79264 | 32.54982 | 28619 ft | 510 kts | 118° |
| 2026-04-14 09:33 | 27.77559 | 32.58487 | 28110 ft | 508 kts | 118° |
| 2026-04-14 09:33 | 27.75863 | 32.61968 | 27617 ft | 504 kts | 118° |
| 2026-04-14 09:34 | 27.74180 | 32.65418 | 27137 ft | 499 kts | 118° |
| 2026-04-14 09:34 | 27.72513 | 32.68836 | 26662 ft | 495 kts | 118° |
| 2026-04-14 09:34 | 27.70860 | 32.72228 | 26194 ft | 491 kts | 118° |
| 2026-04-14 09:34 | 27.69224 | 32.75583 | 25741 ft | 487 kts | 118° |
| 2026-04-14 09:35 | 27.67597 | 32.78915 | 25283 ft | 482 kts | 118° |
| 2026-04-14 09:35 | 27.65984 | 32.82217 | 24841 ft | 479 kts | 118° |
| 2026-04-14 09:35 | 27.64384 | 32.85490 | 24405 ft | 475 kts | 118° |
| 2026-04-14 09:35 | 27.62796 | 32.88736 | 23973 ft | 471 kts | 118° |
| 2026-04-14 09:36 | 27.61218 | 32.91957 | 23523 ft | 467 kts | 118° |
| 2026-04-14 09:36 | 27.59654 | 32.95145 | 23026 ft | 463 kts | 118° |
| 2026-04-14 09:36 | 27.58099 | 32.98309 | 22534 ft | 459 kts | 118° |
| 2026-04-14 09:36 | 27.56558 | 33.01443 | 22044 ft | 455 kts | 118° |
| 2026-04-14 09:37 | 27.55030 | 33.04554 | 21564 ft | 452 kts | 118° |
| 2026-04-14 09:37 | 27.53514 | 33.07637 | 21092 ft | 448 kts | 118° |
| 2026-04-14 09:37 | 27.52007 | 33.10696 | 20631 ft | 445 kts | 118° |
| 2026-04-14 09:37 | 27.50529 | 33.13692 | 20179 ft | 441 kts | 118° |
| 2026-04-14 09:38 | 27.49045 | 33.16704 | 19729 ft | 438 kts | 118° |
| 2026-04-14 09:38 | 27.47574 | 33.19689 | 19284 ft | 432 kts | 118° |
| 2026-04-14 09:38 | 27.46131 | 33.22607 | 18878 ft | 421 kts | 118° |
| 2026-04-14 09:38 | 27.44722 | 33.25452 | 18494 ft | 411 kts | 118° |
| 2026-04-14 09:39 | 27.43345 | 33.28234 | 18073 ft | 403 kts | 118° |
| 2026-04-14 09:39 | 27.41995 | 33.30960 | 17635 ft | 395 kts | 118° |
| 2026-04-14 09:39 | 27.40672 | 33.33634 | 17225 ft | 387 kts | 118° |
| 2026-04-14 09:39 | 27.39390 | 33.36269 | 16821 ft | 380 kts | 115° |
| 2026-04-14 09:40 | 27.38405 | 33.38977 | 16418 ft | 368 kts | 106° |
| 2026-04-14 09:40 | 27.37794 | 33.41725 | 16032 ft | 357 kts | 98° |
| 2026-04-14 09:40 | 27.37456 | 33.44452 | 15643 ft | 347 kts | 96° |
| 2026-04-14 09:40 | 27.37138 | 33.47112 | 15258 ft | 339 kts | 96° |
| 2026-04-14 09:41 | 27.36820 | 33.49705 | 14888 ft | 332 kts | 96° |
| 2026-04-14 09:41 | 27.36500 | 33.52259 | 14548 ft | 327 kts | 98° |
| 2026-04-14 09:41 | 27.35914 | 33.54708 | 14250 ft | 323 kts | 110° |
| 2026-04-14 09:41 | 27.34909 | 33.56957 | 13957 ft | 321 kts | 122° |
| 2026-04-14 09:42 | 27.33544 | 33.58930 | 13622 ft | 320 kts | 133° |
| 2026-04-14 09:42 | 27.31872 | 33.60566 | 13288 ft | 318 kts | 145° |
| 2026-04-14 09:42 | 27.29966 | 33.61793 | 12953 ft | 315 kts | 156° |
| 2026-04-14 09:42 | 27.27891 | 33.62574 | 12632 ft | 314 kts | 165° |
| 2026-04-14 09:43 | 27.25787 | 33.63187 | 12310 ft | 311 kts | 165° |
| 2026-04-14 09:43 | 27.23711 | 33.63800 | 11992 ft | 307 kts | 165° |
| 2026-04-14 09:43 | 27.21655 | 33.64410 | 11673 ft | 304 kts | 165° |
| 2026-04-14 09:43 | 27.19624 | 33.65015 | 11364 ft | 301 kts | 165° |
| 2026-04-14 09:44 | 27.17609 | 33.65615 | 11055 ft | 298 kts | 164° |
| 2026-04-14 09:44 | 27.15618 | 33.66206 | 10748 ft | 294 kts | 165° |
| 2026-04-14 09:44 | 27.13659 | 33.66789 | 10457 ft | 288 kts | 164° |
| 2026-04-14 09:44 | 27.11739 | 33.67363 | 10180 ft | 283 kts | 164° |
| 2026-04-14 09:45 | 27.09858 | 33.67922 | 9890 ft | 276 kts | 165° |
| 2026-04-14 09:45 | 27.08027 | 33.68462 | 9583 ft | 268 kts | 165° |
| 2026-04-14 09:45 | 27.06253 | 33.68984 | 9279 ft | 259 kts | 165° |
| 2026-04-14 09:45 | 27.04543 | 33.69488 | 9002 ft | 249 kts | 165° |
| 2026-04-14 09:46 | 27.02881 | 33.69982 | 8704 ft | 245 kts | 164° |
| 2026-04-14 09:46 | 27.01242 | 33.70469 | 8408 ft | 243 kts | 164° |
| 2026-04-14 09:46 | 26.99617 | 33.70950 | 8113 ft | 240 kts | 164° |
| 2026-04-14 09:46 | 26.98034 | 33.71419 | 7852 ft | 231 kts | 165° |
| 2026-04-14 09:47 | 26.96513 | 33.71867 | 7626 ft | 220 kts | 164° |
| 2026-04-14 09:47 | 26.95063 | 33.72296 | 7394 ft | 213 kts | 165° |
| 2026-04-14 09:47 | 26.93632 | 33.72722 | 7157 ft | 213 kts | 163° |
| 2026-04-14 09:47 | 26.92289 | 33.73394 | 6922 ft | 211 kts | 149° |
| 2026-04-14 09:48 | 26.91155 | 33.74417 | 6689 ft | 209 kts | 136° |
| 2026-04-14 09:48 | 26.90291 | 33.75728 | 6449 ft | 211 kts | 122° |
| 2026-04-14 09:48 | 26.89741 | 33.77252 | 6202 ft | 213 kts | 108° |
| 2026-04-14 09:48 | 26.89370 | 33.78855 | 5951 ft | 212 kts | 107° |
| 2026-04-14 09:49 | 26.88994 | 33.80454 | 5712 ft | 211 kts | 107° |
| 2026-04-14 09:49 | 26.88622 | 33.82030 | 5464 ft | 208 kts | 106° |
| 2026-04-14 09:49 | 26.88254 | 33.83581 | 5222 ft | 204 kts | 106° |
| 2026-04-14 09:49 | 26.88048 | 33.85146 | 4969 ft | 204 kts | 86° |
| 2026-04-14 09:50 | 26.88505 | 33.86605 | 4746 ft | 198 kts | 58° |
| 2026-04-14 09:50 | 26.89501 | 33.87612 | 4512 ft | 193 kts | 32° |
| 2026-04-14 09:50 | 26.90799 | 33.87972 | 4262 ft | 196 kts | 5° |
| 2026-04-14 09:50 | 26.92139 | 33.87682 | 4023 ft | 196 kts | 349° |
| 2026-04-14 09:51 | 26.93452 | 33.87292 | 3723 ft | 195 kts | 350° |
| 2026-04-14 09:51 | 26.94768 | 33.86903 | 3267 ft | 194 kts | 348° |
| 2026-04-14 09:51 | 26.96040 | 33.86525 | 3181 ft | 187 kts | 349° |
| 2026-04-14 09:51 | 26.97291 | 33.86158 | 3086 ft | 185 kts | 350° |
| 2026-04-14 09:52 | 26.98532 | 33.85797 | 2989 ft | 184 kts | 350° |
| 2026-04-14 09:52 | 26.99775 | 33.85434 | 2818 ft | 185 kts | 349° |
| 2026-04-14 09:52 | 27.01023 | 33.85066 | 2674 ft | 187 kts | 348° |
| 2026-04-14 09:52 | 27.02285 | 33.84694 | 2516 ft | 187 kts | 348° |
| 2026-04-14 09:53 | 27.03534 | 33.84327 | 2355 ft | 185 kts | 348° |
| 2026-04-14 09:53 | 27.04792 | 33.83957 | 2199 ft | 188 kts | 347° |
| 2026-04-14 09:53 | 27.06049 | 33.83587 | 2049 ft | 184 kts | 347° |
| 2026-04-14 09:53 | 27.07229 | 33.83239 | 1838 ft | 165 kts | 347° |
| 2026-04-14 09:54 | 27.08286 | 33.82925 | 1622 ft | 151 kts | 347° |
| 2026-04-14 09:54 | 27.09287 | 33.82629 | 1429 ft | 147 kts | 347° |
| 2026-04-14 09:54 | 27.10262 | 33.82341 | 1237 ft | 145 kts | 346° |
| 2026-04-14 09:54 | 27.11227 | 33.82058 | 1047 ft | 143 kts | 345° |
| 2026-04-14 09:55 | 27.12190 | 33.81775 | 814 ft | 143 kts | 344° |
| 2026-04-14 09:55 | 27.13141 | 33.81480 | 657 ft | 141 kts | 344° |
| 2026-04-14 09:55 | 27.14077 | 33.81195 | 466 ft | 141 kts | 346° |
| 2026-04-14 09:55 | 27.15027 | 33.80930 | 304 ft | 141 kts | 346° |
| 2026-04-14 09:56 | 27.15968 | 33.80670 | 147 ft | 138 kts | 344° |
| 2026-04-14 09:56 | 27.16884 | 33.80371 | 48 ft | 132 kts | 345° |
| 2026-04-14 09:56 | 27.17603 | 33.80172 | 54 ft | 78 kts | 346° |
| 2026-04-14 09:56 | 27.18017 | 33.80049 | 51 ft | 55 kts | 345° |
| 2026-04-14 09:57 | 27.18375 | 33.79945 | 50 ft | 51 kts | 346° |
| 2026-04-14 09:57 | 27.18594 | 33.79885 | 53 ft | 22 kts | 347° |
| 2026-04-14 09:57 | 27.18743 | 33.79875 | 54 ft | 22 kts | 5° |
| 2026-04-14 09:57 | 27.18892 | 33.79910 | 57 ft | 17 kts | 16° |
| 2026-04-14 09:58 | 27.19001 | 33.79923 | 54 ft | 15 kts | 354° |
| 2026-04-14 09:58 | 27.19104 | 33.79900 | 59 ft | 15 kts | 360° |
| 2026-04-14 09:58 | 27.19166 | 33.79982 | 57 ft | 17 kts | 72° |
| 2026-04-14 09:58 | 27.19202 | 33.80134 | 52 ft | 20 kts | 75° |
| 2026-04-14 09:59 | 27.19187 | 33.80227 | 58 ft | 12 kts | 147° |
| 2026-04-14 09:59 | 27.19102 | 33.80259 | 57 ft | 15 kts | 165° |
| 2026-04-14 09:59 | 27.19000 | 33.80289 | 52 ft | 15 kts | 165° |
| 2026-04-14 09:59 | 27.18910 | 33.80315 | 53 ft | 10 kts | 159° |
| 2026-04-14 10:00 | 27.18906 | 33.80367 | 57 ft | 6 kts | 77° |
| 2026-04-14 10:00 | 27.18912 | 33.80391 | 56 ft | 0 kts | 75° |